^^
Your Local Weather - Clay, NY Station Historical Data
Daily Summary for August 30, 2017 Units:  English    Metric   Both
« Previous Day
Next Day »
Daily Weekly Monthly Yearly Custom
  High: Low: Average:
Temperature: 74.5 °F 47.0 °F 60 °F
Dew Point: 58.3 °F 45.1 °F 52.1 °F
Humidity: 94% 49% 77%
Wind Speed: 3.0mph 0.0mph 0.5mph
Wind Gust: 7.0mph - -
Wind- - SW
Pressure: 30.03 in 29.89 in -
Precipitation: 0.00 in    
Historical Graphs
 
 
Tabular Data for August 30, 2017
Time Temperature Dew Point Pressure Wind Wind Speed Wind Gust Humidity Rainfall Rate (Hourly) solar
00:00 52.5 °F 48.7 °F 30.03 in Calm     87% 0.00 in 0 W/m2
00:06 52.3 °F 48.5 °F 30.03 in Calm     87% 0.00 in 0 W/m2
00:12 52.1 °F 48.7 °F 30.03 in Calm     88% 0.00 in 0 W/m2
00:18 52.0 °F 48.9 °F 30.03 in Calm     89% 0.00 in 0 W/m2
00:24 52.0 °F 48.9 °F 30.03 in Calm     89% 0.00 in 0 W/m2
00:30 51.7 °F 48.6 °F 30.03 in Calm     89% 0.00 in 0 W/m2
00:36 51.5 °F 48.4 °F 30.03 in Calm     89% 0.00 in 0 W/m2
00:42 51.4 °F 48.3 °F 30.02 in Calm     89% 0.00 in 0 W/m2
00:48 51.2 °F 48.4 °F 30.02 in Calm     90% 0.00 in 0 W/m2
00:54 51.1 °F 48.3 °F 30.02 in Calm   1.0 mph 90% 0.00 in 0 W/m2
01:00 51.1 °F 48.3 °F 30.02 in Calm     90% 0.00 in 0 W/m2
01:06 51.1 °F 48.3 °F 30.02 in Calm     90% 0.00 in 0 W/m2
01:12 50.9 °F 48.1 °F 30.02 in Calm     90% 0.00 in 0 W/m2
01:18 51.0 °F 48.5 °F 30.02 in Calm   2.0 mph 91% 0.00 in 0 W/m2
01:24 51.2 °F 48.7 °F 30.02 in Calm     91% 0.00 in 0 W/m2
01:30 51.3 °F 48.8 °F 30.02 in Calm     91% 0.00 in 0 W/m2
01:36 51.4 °F 48.9 °F 30.02 in Calm     91% 0.00 in 0 W/m2
01:42 51.4 °F 48.9 °F 30.02 in Calm     91% 0.00 in 0 W/m2
01:48 51.3 °F 48.8 °F 30.02 in Calm     91% 0.00 in 0 W/m2
01:54 51.2 °F 48.7 °F 30.01 in Calm     91% 0.00 in 0 W/m2
02:00 51.0 °F 48.5 °F 30.01 in Calm     91% 0.00 in 0 W/m2
02:06 50.9 °F 48.4 °F 30.01 in Calm     91% 0.00 in 0 W/m2
02:12 50.8 °F 48.3 °F 30.01 in Calm     91% 0.00 in 0 W/m2
02:18 50.7 °F 48.2 °F 30.01 in Calm     91% 0.00 in 0 W/m2
02:24 50.4 °F 47.9 °F 30.01 in Calm     91% 0.00 in 0 W/m2
02:30 50.2 °F 47.7 °F 30.00 in Calm     91% 0.00 in 0 W/m2
02:36 50.3 °F 47.8 °F 30.00 in Calm     91% 0.00 in 0 W/m2
02:42 50.2 °F 47.7 °F 30.00 in Calm     91% 0.00 in 0 W/m2
02:48 49.9 °F 47.4 °F 30.00 in Calm     91% 0.00 in 0 W/m2
02:54 49.8 °F 47.3 °F 30.00 in Calm     91% 0.00 in 0 W/m2
03:00 49.8 °F 47.6 °F 30.00 in Calm     92% 0.00 in 0 W/m2
03:06 49.7 °F 47.5 °F 30.00 in Calm     92% 0.00 in 0 W/m2
03:12 49.5 °F 47.3 °F 29.99 in Calm     92% 0.00 in 0 W/m2
03:18 49.2 °F 47.0 °F 29.99 in Calm     92% 0.00 in 0 W/m2
03:30 49.0 °F 46.8 °F 29.99 in Calm     92% 0.00 in 0 W/m2
03:36 48.8 °F 46.6 °F 29.98 in Calm     92% 0.00 in 0 W/m2
03:42 48.5 °F 46.3 °F 29.98 in Calm     92% 0.00 in 0 W/m2
03:48 48.4 °F 46.2 °F 29.98 in Calm     92% 0.00 in 0 W/m2
03:54 48.4 °F 46.2 °F 29.98 in Calm     92% 0.00 in 0 W/m2
04:00 48.3 °F 46.1 °F 29.98 in Calm     92% 0.00 in 0 W/m2
04:06 48.3 °F 46.1 °F 29.98 in Calm     92% 0.00 in 0 W/m2
04:12 48.0 °F 45.8 °F 29.98 in Calm     92% 0.00 in 0 W/m2
04:18 47.9 °F 45.7 °F 29.98 in Calm     92% 0.00 in 0 W/m2
04:24 47.9 °F 45.7 °F 29.98 in Calm     92% 0.00 in 0 W/m2
04:30 47.7 °F 45.5 °F 29.99 in Calm     92% 0.00 in 0 W/m2
04:36 47.6 °F 45.4 °F 29.99 in Calm     92% 0.00 in 0 W/m2
04:42 47.6 °F 45.7 °F 29.99 in Calm     93% 0.00 in 0 W/m2
04:54 47.3 °F 45.4 °F 29.98 in Calm     93% 0.00 in 0 W/m2
05:00 47.1 °F 45.2 °F 29.98 in Calm     93% 0.00 in 0 W/m2
05:06 47.3 °F 45.4 °F 29.98 in Calm     93% 0.00 in 0 W/m2
05:12 47.5 °F 45.6 °F 29.98 in East 1.0 mph 1.0 mph 93% 0.00 in 0 W/m2
05:18 47.7 °F 45.8 °F 29.98 in East 1.0 mph 1.0 mph 93% 0.00 in 0 W/m2
05:24 47.9 °F 46.0 °F 29.98 in Calm   1.0 mph 93% 0.00 in 0 W/m2
05:30 47.8 °F 45.9 °F 29.98 in Calm     93% 0.00 in 0 W/m2
05:36 47.8 °F 45.9 °F 29.98 in Calm     93% 0.00 in 0 W/m2
05:42 47.6 °F 45.7 °F 29.98 in Calm     93% 0.00 in 0 W/m2
05:48 47.4 °F 45.5 °F 29.98 in Calm     93% 0.00 in 0 W/m2
05:56 47.2 °F 45.3 °F 29.98 in Calm     93% 0.00 in 0 W/m2
06:02 47.1 °F 45.2 °F 29.98 in Calm     93% 0.00 in 0 W/m2
06:08 47.0 °F 45.1 °F 29.98 in Calm     93% 0.00 in 0 W/m2
06:14 47.0 °F 45.1 °F 29.98 in Calm     93% 0.00 in 0 W/m2
06:20 47.4 °F 45.5 °F 29.98 in Calm     93% 0.00 in 0 W/m2
06:26 47.6 °F 45.7 °F 29.98 in Calm     93% 0.00 in 0 W/m2
06:32 47.6 °F 45.7 °F 29.98 in Calm     93% 0.00 in 5 W/m2
06:38 47.6 °F 45.7 °F 29.98 in Calm     93% 0.00 in 9 W/m2
06:44 47.7 °F 46.1 °F 29.98 in Calm     94% 0.00 in 12 W/m2
06:50 47.8 °F 46.2 °F 29.98 in Calm     94% 0.00 in 16 W/m2
06:56 47.6 °F 46.0 °F 29.98 in Calm     94% 0.00 in 19 W/m2
07:02 47.6 °F 45.7 °F 29.99 in Calm     93% 0.00 in 28 W/m2
07:08 47.6 °F 46.0 °F 29.99 in Calm     94% 0.00 in 32 W/m2
07:14 47.8 °F 46.2 °F 29.99 in Calm     94% 0.00 in 35 W/m2
07:20 48.1 °F 46.5 °F 29.99 in Calm     94% 0.00 in 40 W/m2
07:26 48.5 °F 46.9 °F 29.99 in Calm     94% 0.00 in 44 W/m2
07:32 48.9 °F 47.2 °F 29.99 in Calm     94% 0.00 in 95 W/m2
07:38 49.6 °F 47.9 °F 29.99 in Calm     94% 0.00 in 125 W/m2
07:44 50.2 °F 48.5 °F 29.99 in Calm     94% 0.00 in 69 W/m2
07:50 50.7 °F 49.0 °F 29.99 in Calm     94% 0.00 in 62 W/m2
07:56 50.8 °F 49.1 °F 29.99 in Calm     94% 0.00 in 95 W/m2
08:02 51.2 °F 49.5 °F 29.99 in Calm     94% 0.00 in 123 W/m2
08:08 51.7 °F 50.0 °F 29.99 in Calm     94% 0.00 in 84 W/m2
08:14 52.0 °F 50.3 °F 29.99 in Calm     94% 0.00 in 93 W/m2
08:20 52.5 °F 50.8 °F 29.99 in Calm     94% 0.00 in 109 W/m2
08:26 52.9 °F 51.2 °F 29.99 in Calm     94% 0.00 in 83 W/m2
08:32 53.4 °F 51.7 °F 29.99 in Calm     94% 0.00 in 76 W/m2
08:38 54.0 °F 52.3 °F 29.98 in Calm     94% 0.00 in 237 W/m2
08:44 54.5 °F 52.5 °F 29.98 in Calm     93% 0.00 in 158 W/m2
08:50 55.0 °F 52.7 °F 29.99 in Calm     92% 0.00 in 83 W/m2
08:56 55.7 °F 52.8 °F 29.99 in Calm     90% 0.00 in 134 W/m2
09:02 56.6 °F 53.1 °F 29.99 in Calm   2.0 mph 88% 0.00 in 172 W/m2
09:08 57.2 °F 52.4 °F 29.99 in East 1.0 mph 2.0 mph 84% 0.00 in 153 W/m2
09:14 57.8 °F 52.7 °F 29.99 in Calm   1.0 mph 83% 0.00 in 90 W/m2
09:20 58.5 °F 53.0 °F 29.99 in Calm   2.0 mph 82% 0.00 in 114 W/m2
09:26 58.9 °F 52.7 °F 29.99 in SSE 2.0 mph 3.0 mph 80% 0.00 in 225 W/m2
09:32 59.4 °F 52.9 °F 29.99 in ESE 1.0 mph 1.0 mph 79% 0.00 in 438 W/m2
09:38 59.9 °F 53.0 °F 29.99 in NE 1.0 mph 2.0 mph 78% 0.00 in 406 W/m2
09:44 60.2 °F 53.3 °F 29.98 in NE 1.0 mph 1.0 mph 78% 0.00 in 515 W/m2
09:50 61.1 °F 53.1 °F 29.98 in Calm     75% 0.00 in 536 W/m2
09:56 61.7 °F 54.1 °F 29.99 in NW 1.0 mph 1.0 mph 76% 0.00 in 554 W/m2
10:02 62.6 °F 54.2 °F 29.99 in SSW 1.0 mph 1.0 mph 74% 0.00 in 571 W/m2
10:10 62.8 °F 54.0 °F 29.98 in South 1.0 mph 1.0 mph 73% 0.00 in 591 W/m2
10:16 63.4 °F 54.2 °F 29.98 in Calm   1.0 mph 72% 0.00 in 608 W/m2
10:22 64.1 °F 54.5 °F 29.98 in Calm     71% 0.00 in 624 W/m2
10:28 64.8 °F 56.3 °F 29.98 in Calm   1.0 mph 74% 0.00 in 640 W/m2
10:34 64.9 °F 54.9 °F 29.98 in NE 1.0 mph 2.0 mph 70% 0.00 in 652 W/m2
10:40 64.3 °F 55.1 °F 29.97 in NE 1.0 mph 1.0 mph 72% 0.00 in 668 W/m2
10:46 64.9 °F 56.4 °F 29.97 in SE 2.0 mph 3.0 mph 74% 0.00 in 682 W/m2
10:52 65.2 °F 55.2 °F 29.97 in SSW 2.0 mph 3.0 mph 70% 0.00 in 694 W/m2
10:58 65.3 °F 54.9 °F 29.97 in South 2.0 mph 3.0 mph 69% 0.00 in 707 W/m2
11:04 65.9 °F 55.4 °F 29.97 in South 1.0 mph 2.0 mph 69% 0.00 in 717 W/m2
11:10 66.3 °F 55.4 °F 29.97 in Calm   1.0 mph 68% 0.00 in 726 W/m2
11:16 66.9 °F 55.6 °F 29.97 in Calm   1.0 mph 67% 0.00 in 738 W/m2
11:22 66.3 °F 55.0 °F 29.97 in SSE 2.0 mph 3.0 mph 67% 0.00 in 752 W/m2
11:28 66.6 °F 54.9 °F 29.96 in South 2.0 mph 4.0 mph 66% 0.00 in 761 W/m2
11:40 67.6 °F 55.8 °F 29.96 in South 1.0 mph 1.0 mph 66% 0.00 in 779 W/m2
11:46 68.2 °F 55.6 °F 29.96 in Calm   2.0 mph 64% 0.00 in 784 W/m2
11:52 68.7 °F 56.5 °F 29.96 in SE 2.0 mph 3.0 mph 65% 0.00 in 791 W/m2
11:58 69.3 °F 55.3 °F 29.95 in SW 1.0 mph 3.0 mph 61% 0.00 in 800 W/m2
12:04 69.6 °F 57.7 °F 29.95 in SW 1.0 mph 3.0 mph 66% 0.00 in 803 W/m2
12:10 69.2 °F 55.2 °F 29.95 in SSW 1.0 mph 1.0 mph 61% 0.00 in 810 W/m2
12:16 69.0 °F 54.1 °F 29.95 in SSW 1.0 mph 3.0 mph 59% 0.00 in 814 W/m2
12:22 69.6 °F 55.1 °F 29.95 in SSW 1.0 mph 2.0 mph 60% 0.00 in 819 W/m2
12:28 69.6 °F 53.2 °F 29.95 in Calm   2.0 mph 56% 0.00 in 821 W/m2
12:34 70.2 °F 54.7 °F 29.95 in Calm   4.0 mph 58% 0.00 in 823 W/m2
12:40 70.5 °F 55.9 °F 29.95 in WSW 1.0 mph 5.0 mph 60% 0.00 in 824 W/m2
12:46 70.5 °F 55.0 °F 29.95 in WSW 2.0 mph 5.0 mph 58% 0.00 in 821 W/m2
12:52 70.1 °F 52.2 °F 29.95 in SSE 2.0 mph 4.0 mph 53% 0.00 in 831 W/m2
12:58 70.3 °F 53.4 °F 29.95 in West 2.0 mph 4.0 mph 55% 0.00 in 847 W/m2
13:04 71.4 °F 51.2 °F 29.95 in West 1.0 mph 2.0 mph 49% 0.00 in 904 W/m2
13:10 71.2 °F 52.7 °F 29.95 in Calm     52% 0.00 in 703 W/m2
13:16 71.8 °F 54.8 °F 29.95 in NNW 1.0 mph 3.0 mph 55% 0.00 in 830 W/m2
13:22 72.1 °F 54.5 °F 29.95 in NNW 2.0 mph 2.0 mph 54% 0.00 in 886 W/m2
13:28 72.8 °F 55.2 °F 29.95 in NNW 1.0 mph 2.0 mph 54% 0.00 in 838 W/m2
13:34 71.4 °F 53.4 °F 29.94 in Calm   3.0 mph 53% 0.00 in 831 W/m2
13:40 71.7 °F 55.2 °F 29.94 in WNW 1.0 mph 1.0 mph 56% 0.00 in 837 W/m2
13:46 72.8 °F 56.7 °F 29.94 in NNW 1.0 mph 3.0 mph 57% 0.00 in 842 W/m2
13:52 72.9 °F 57.7 °F 29.94 in NW 1.0 mph 3.0 mph 59% 0.00 in 831 W/m2
13:58 72.5 °F 56.9 °F 29.93 in WNW 1.0 mph 3.0 mph 58% 0.00 in 837 W/m2
14:04 73.5 °F 55.8 °F 29.93 in WNW 1.0 mph 2.0 mph 54% 0.00 in 856 W/m2
14:10 73.2 °F 57.1 °F 29.93 in NW 1.0 mph 1.0 mph 57% 0.00 in 842 W/m2
14:16 73.8 °F 55.1 °F 29.93 in North 2.0 mph 2.0 mph 52% 0.00 in 840 W/m2
14:22 73.7 °F 55.5 °F 29.92 in NNW 2.0 mph 2.0 mph 53% 0.00 in 844 W/m2
14:28 72.9 °F 54.8 °F 29.92 in WNW 1.0 mph 2.0 mph 53% 0.00 in 207 W/m2
14:34 72.3 °F 56.2 °F 29.92 in NW 1.0 mph 3.0 mph 57% 0.00 in 214 W/m2
14:40 71.7 °F 55.7 °F 29.92 in NNW 1.0 mph 2.0 mph 57% 0.00 in 188 W/m2
14:46 72.6 °F 57.9 °F 29.92 in SW 1.0 mph 1.0 mph 60% 0.00 in 773 W/m2
14:52 73.3 °F 55.1 °F 29.92 in SW 1.0 mph 2.0 mph 53% 0.00 in 773 W/m2
14:58 74.0 °F 56.8 °F 29.92 in NW 1.0 mph 4.0 mph 55% 0.00 in 807 W/m2
15:04 73.5 °F 55.8 °F 29.91 in North 2.0 mph 3.0 mph 54% 0.00 in 160 W/m2
15:10 72.1 °F 55.5 °F 29.91 in North 2.0 mph 2.0 mph 56% 0.00 in 200 W/m2
15:16 71.8 °F 55.7 °F 29.91 in North 1.0 mph 3.0 mph 57% 0.00 in 267 W/m2
15:22 72.5 °F 55.9 °F 29.91 in North 1.0 mph 2.0 mph 56% 0.00 in 775 W/m2
15:28 73.7 °F 56.0 °F 29.91 in NNW 2.0 mph 4.0 mph 54% 0.00 in 698 W/m2
15:34 74.2 °F 54.9 °F 29.90 in NNW 2.0 mph 3.0 mph 51% 0.00 in 712 W/m2
15:40 73.5 °F 55.3 °F 29.90 in North 3.0 mph 3.0 mph 53% 0.00 in 754 W/m2
15:46 73.9 °F 56.7 °F 29.90 in NNE 3.0 mph 3.0 mph 55% 0.00 in 715 W/m2
15:52 74.5 °F 56.8 °F 29.90 in NNE 3.0 mph 5.0 mph 54% 0.00 in 693 W/m2
15:58 74.3 °F 56.6 °F 29.90 in NW 3.0 mph 5.0 mph 54% 0.00 in 633 W/m2
16:04 74.5 °F 56.2 °F 29.90 in NE 2.0 mph 5.0 mph 53% 0.00 in 631 W/m2
16:10 74.0 °F 55.8 °F 29.90 in North 3.0 mph 5.0 mph 53% 0.00 in 640 W/m2
16:16 73.7 °F 56.0 °F 29.90 in NW 3.0 mph 5.0 mph 54% 0.00 in 555 W/m2
16:22 73.9 °F 56.7 °F 29.90 in NW 3.0 mph 5.0 mph 55% 0.00 in 550 W/m2
16:28 74.4 °F 56.7 °F 29.90 in NW 2.0 mph 5.0 mph 54% 0.00 in 564 W/m2
16:34 73.8 °F 56.6 °F 29.90 in NW 2.0 mph 5.0 mph 55% 0.00 in 578 W/m2
16:40 73.2 °F 57.5 °F 29.90 in NNW 2.0 mph 2.0 mph 58% 0.00 in 545 W/m2
16:46 72.7 °F 57.5 °F 29.90 in North 1.0 mph 2.0 mph 59% 0.00 in 132 W/m2
16:52 73.0 °F 58.3 °F 29.90 in NNW 2.0 mph 3.0 mph 60% 0.00 in 461 W/m2
16:58 73.3 °F 57.1 °F 29.90 in NNW 2.0 mph 3.0 mph 57% 0.00 in 450 W/m2
17:04 73.2 °F 57.5 °F 29.90 in North 2.0 mph 7.0 mph 58% 0.00 in 443 W/m2
17:10 73.3 °F 56.7 °F 29.90 in North 3.0 mph 3.0 mph 56% 0.00 in 425 W/m2
17:16 73.7 °F 58.0 °F 29.90 in NNW 2.0 mph 3.0 mph 58% 0.00 in 359 W/m2
17:22 73.5 °F 56.8 °F 29.90 in NNW 1.0 mph 1.0 mph 56% 0.00 in 339 W/m2
17:28 73.1 °F 57.0 °F 29.90 in NNW 1.0 mph 1.0 mph 57% 0.00 in 320 W/m2
17:34 72.8 °F 56.2 °F 29.90 in NNW 1.0 mph 1.0 mph 56% 0.00 in 306 W/m2
17:40 72.4 °F 55.8 °F 29.90 in NNW 2.0 mph 2.0 mph 56% 0.00 in 288 W/m2
17:46 72.0 °F 55.4 °F 29.90 in NNW 2.0 mph 3.0 mph 56% 0.00 in 160 W/m2
17:52 71.7 °F 56.6 °F 29.90 in NNW 1.0 mph 2.0 mph 59% 0.00 in 74 W/m2
17:58 71.5 °F 55.5 °F 29.90 in WSW 1.0 mph 2.0 mph 57% 0.00 in 86 W/m2
18:04 71.3 °F 54.3 °F 29.90 in WNW 1.0 mph 1.0 mph 55% 0.00 in 62 W/m2
18:10 71.2 °F 55.2 °F 29.90 in Calm     57% 0.00 in 58 W/m2
18:16 71.1 °F 55.6 °F 29.89 in Calm     58% 0.00 in 53 W/m2
18:22 70.9 °F 56.8 °F 29.90 in Calm     61% 0.00 in 49 W/m2
18:28 70.6 °F 55.6 °F 29.89 in Calm   2.0 mph 59% 0.00 in 46 W/m2
18:34 70.2 °F 55.7 °F 29.89 in Calm     60% 0.00 in 44 W/m2
18:40 70.0 °F 55.9 °F 29.89 in Calm     61% 0.00 in 40 W/m2
18:46 69.8 °F 55.7 °F 29.89 in Calm     61% 0.00 in 37 W/m2
18:52 69.5 °F 55.9 °F 29.89 in Calm     62% 0.00 in 33 W/m2
18:58 69.1 °F 55.5 °F 29.89 in Calm     62% 0.00 in 30 W/m2
19:04 68.7 °F 55.2 °F 29.89 in Calm     62% 0.00 in 26 W/m2
19:10 68.3 °F 55.2 °F 29.89 in Calm     63% 0.00 in 23 W/m2
19:16 67.9 °F 55.3 °F 29.89 in Calm     64% 0.00 in 19 W/m2
19:28 66.8 °F 53.8 °F 29.89 in Calm     63% 0.00 in 11 W/m2
19:40 66.1 °F 53.6 °F 29.89 in Calm     64% 0.00 in 5 W/m2
19:46 65.8 °F 55.7 °F 29.89 in Calm     70% 0.00 in 0 W/m2
19:52 65.1 °F 56.2 °F 29.89 in Calm     73% 0.00 in 0 W/m2
19:58 64.1 °F 55.6 °F 29.89 in Calm     74% 0.00 in 0 W/m2
20:04 63.3 °F 55.2 °F 29.89 in Calm     75% 0.00 in 0 W/m2
20:10 62.4 °F 55.4 °F 29.89 in Calm     78% 0.00 in 0 W/m2
20:16 61.8 °F 55.2 °F 29.89 in Calm     79% 0.00 in 0 W/m2
20:22 61.3 °F 55.4 °F 29.89 in Calm     81% 0.00 in 0 W/m2
20:28 60.8 °F 54.9 °F 29.89 in Calm     81% 0.00 in 0 W/m2
20:34 60.4 °F 54.9 °F 29.89 in Calm     82% 0.00 in 0 W/m2
20:40 60.1 °F 54.6 °F 29.90 in Calm     82% 0.00 in 0 W/m2
20:46 59.8 °F 54.3 °F 29.90 in Calm     82% 0.00 in 0 W/m2
20:52 59.6 °F 54.1 °F 29.90 in Calm     82% 0.00 in 0 W/m2
20:58 59.3 °F 54.1 °F 29.90 in Calm     83% 0.00 in 0 W/m2
21:04 59.0 °F 53.8 °F 29.90 in Calm     83% 0.00 in 0 W/m2
21:10 58.7 °F 53.5 °F 29.90 in Calm     83% 0.00 in 0 W/m2
21:16 58.4 °F 53.6 °F 29.90 in Calm     84% 0.00 in 0 W/m2
21:22 58.0 °F 53.5 °F 29.89 in Calm     85% 0.00 in 0 W/m2
21:28 57.8 °F 53.6 °F 29.89 in Calm     86% 0.00 in 0 W/m2
21:34 57.5 °F 53.0 °F 29.90 in Calm     85% 0.00 in 0 W/m2
21:40 57.2 °F 53.0 °F 29.90 in Calm     86% 0.00 in 0 W/m2
21:46 57.0 °F 52.9 °F 29.90 in Calm     86% 0.00 in 0 W/m2
21:52 56.8 °F 53.0 °F 29.90 in Calm     87% 0.00 in 0 W/m2
21:58 56.6 °F 52.8 °F 29.90 in Calm     87% 0.00 in 0 W/m2
22:04 56.5 °F 53.0 °F 29.90 in Calm     88% 0.00 in 0 W/m2
22:10 56.5 °F 53.3 °F 29.90 in Calm     89% 0.00 in 0 W/m2
22:16 56.3 °F 53.1 °F 29.89 in Calm     89% 0.00 in 0 W/m2
22:22 56.2 °F 53.0 °F 29.89 in Calm     89% 0.00 in 0 W/m2
22:28 56.1 °F 52.9 °F 29.89 in Calm     89% 0.00 in 0 W/m2
22:34 56.1 °F 53.2 °F 29.89 in Calm     90% 0.00 in 0 W/m2
22:46 55.8 °F 52.9 °F 29.89 in Calm     90% 0.00 in 0 W/m2
22:52 55.9 °F 53.0 °F 29.89 in Calm     90% 0.00 in 0 W/m2
22:58 55.8 °F 52.9 °F 29.89 in Calm     90% 0.00 in 0 W/m2
23:04 55.7 °F 52.8 °F 29.89 in Calm     90% 0.00 in 0 W/m2
23:10 55.5 °F 52.6 °F 29.89 in Calm     90% 0.00 in 0 W/m2
23:18 55.3 °F 52.4 °F 29.89 in Calm     90% 0.00 in 0 W/m2
23:24 55.1 °F 52.5 °F 29.89 in Calm     91% 0.00 in 0 W/m2
23:26 55.0 °F 52.4 °F 29.89 in Calm     91% 0.00 in 0 W/m2
23:30 54.9 °F 52.3 °F 29.89 in Calm     91% 0.00 in 0 W/m2
23:32 54.9 °F 52.3 °F 29.89 in Calm     91% 0.00 in 0 W/m2
23:38 54.9 °F 52.3 °F 29.89 in Calm     91% 0.00 in 0 W/m2
23:44 54.8 °F 52.2 °F 29.89 in Calm     91% 0.00 in 0 W/m2
23:50 54.8 °F 52.2 °F 29.89 in Calm     91% 0.00 in 0 W/m2
23:56 54.7 °F 52.1 °F 29.89 in Calm     91% 0.00 in 0 W/m2
Country Meadow, Clay, NY, USA
Compliments of Weather Underground - 2 mb